sensor_id;sensor_type;location;lat;lon;timestamp;pressure;altitude;pressure_sealevel;temperature;humidity
66164;BME280;52962;51.088;3.096;2023-03-04T00:01:25;102544.63;;;6.08;nan
66164;BME280;52962;51.088;3.096;2023-03-04T00:03:53;102555.22;;;6.09;nan
66164;BME280;52962;51.088;3.096;2023-03-04T00:06:21;102556.91;;;6.09;nan
66164;BME280;52962;51.088;3.096;2023-03-04T00:08:49;102552.59;;;6.09;nan
66164;BME280;52962;51.088;3.096;2023-03-04T00:11:19;102557.00;;;6.10;nan
66164;BME280;52962;51.088;3.096;2023-03-04T00:13:47;102550.88;;;6.10;nan
66164;BME280;52962;51.088;3.096;2023-03-04T00:16:15;102557.81;;;6.09;nan
66164;BME280;52962;51.088;3.096;2023-03-04T00:18:43;102557.63;;;6.06;nan
66164;BME280;52962;51.088;3.096;2023-03-04T00:21:11;102558.53;;;6.07;nan
66164;BME280;52962;51.088;3.096;2023-03-04T00:23:40;102550.88;;;6.10;nan
66164;BME280;52962;51.088;3.096;2023-03-04T00:26:09;102555.31;;;6.11;nan
66164;BME280;52962;51.088;3.096;2023-03-04T00:28:42;102565.56;;;6.08;nan
66164;BME280;52962;51.088;3.096;2023-03-04T00:31:10;102561.94;;;6.06;nan
66164;BME280;52962;51.088;3.096;2023-03-04T00:33:38;102558.44;;;6.05;nan
66164;BME280;52962;51.088;3.096;2023-03-04T00:36:09;102561.94;;;6.06;nan
66164;BME280;52962;51.088;3.096;2023-03-04T00:38:37;102555.72;;;6.04;nan
66164;BME280;52962;51.088;3.096;2023-03-04T00:41:05;102546.25;;;6.06;nan
66164;BME280;52962;51.088;3.096;2023-03-04T00:43:33;102548.75;;;6.04;nan
66164;BME280;52962;51.088;3.096;2023-03-04T00:46:03;102547.97;;;6.05;nan
66164;BME280;52962;51.088;3.096;2023-03-04T00:48:31;102547.47;;;6.11;nan
66164;BME280;52962;51.088;3.096;2023-03-04T00:50:59;102552.59;;;6.09;nan
66164;BME280;52962;51.088;3.096;2023-03-04T00:53:27;102542.13;;;6.09;nan
66164;BME280;52962;51.088;3.096;2023-03-04T00:55:55;102543.84;;;6.09;nan
66164;BME280;52962;51.088;3.096;2023-03-04T00:58:23;102538.50;;;6.07;nan
66164;BME280;52962;51.088;3.096;2023-03-04T01:00:51;102543.03;;;6.10;nan
66164;BME280;52962;51.088;3.096;2023-03-04T01:03:22;102539.59;;;6.11;nan
66164;BME280;52962;51.088;3.096;2023-03-04T01:05:52;102548.25;;;6.10;nan
66164;BME280;52962;51.088;3.096;2023-03-04T01:08:21;102543.03;;;6.10;nan
66164;BME280;52962;51.088;3.096;2023-03-04T01:10:49;102540.41;;;6.10;nan
66164;BME280;52962;51.088;3.096;2023-03-04T01:13:17;102545.66;;;6.10;nan
66164;BME280;52962;51.088;3.096;2023-03-04T01:15:45;102545.53;;;6.08;nan
66164;BME280;52962;51.088;3.096;2023-03-04T01:18:13;102536.78;;;6.08;nan
66164;BME280;52962;51.088;3.096;2023-03-04T01:20:43;102539.41;;;6.08;nan
66164;BME280;52962;51.088;3.096;2023-03-04T01:23:11;102542.84;;;6.07;nan
66164;BME280;52962;51.088;3.096;2023-03-04T01:25:40;102542.03;;;6.08;nan
66164;BME280;52962;51.088;3.096;2023-03-04T01:28:08;102538.59;;;6.09;nan
66164;BME280;52962;51.088;3.096;2023-03-04T01:30:37;102535.09;;;6.08;nan
66164;BME280;52962;51.088;3.096;2023-03-04T01:33:05;102541.22;;;6.09;nan
66164;BME280;52962;51.088;3.096;2023-03-04T01:35:33;102535.19;;;6.10;nan
66164;BME280;52962;51.088;3.096;2023-03-04T01:38:02;102534.28;;;6.09;nan
66164;BME280;52962;51.088;3.096;2023-03-04T01:40:31;102530.75;;;6.09;nan
66164;BME280;52962;51.088;3.096;2023-03-04T01:42:59;102528.16;;;6.09;nan
66164;BME280;52962;51.088;3.096;2023-03-04T01:45:29;102522.00;;;6.08;nan
66164;BME280;52962;51.088;3.096;2023-03-04T01:47:58;102516.78;;;6.08;nan
66164;BME280;52962;51.088;3.096;2023-03-04T01:50:29;102512.25;;;6.06;nan
66164;BME280;52962;51.088;3.096;2023-03-04T01:52:58;102502.78;;;6.08;nan
66164;BME280;52962;51.088;3.096;2023-03-04T01:55:29;102485.38;;;6.08;nan
66164;BME280;52962;51.088;3.096;2023-03-04T01:57:57;102493.22;;;6.08;nan
66164;BME280;52962;51.088;3.096;2023-03-04T02:00:28;102501.88;;;6.07;nan
66164;BME280;52962;51.088;3.096;2023-03-04T02:02:59;102488.72;;;6.06;nan
66164;BME280;52962;51.088;3.096;2023-03-04T02:05:29;102489.63;;;6.06;nan
66164;BME280;52962;51.088;3.096;2023-03-04T02:07:58;102482.69;;;6.07;nan
66164;BME280;52962;51.088;3.096;2023-03-04T02:10:28;102484.47;;;6.08;nan
66164;BME280;52962;51.088;3.096;2023-03-04T02:12:57;102470.69;;;6.10;nan
66164;BME280;52962;51.088;3.096;2023-03-04T02:15:26;102475.03;;;6.10;nan
66164;BME280;52962;51.088;3.096;2023-03-04T02:17:55;102473.22;;;6.09;nan
66164;BME280;52962;51.088;3.096;2023-03-04T02:20:36;102478.44;;;6.09;nan
66164;BME280;52962;51.088;3.096;2023-03-04T02:23:13;102469.69;;;6.08;nan
66164;BME280;52962;51.088;3.096;2023-03-04T02:25:47;102472.31;;;6.08;nan
66164;BME280;52962;51.088;3.096;2023-03-04T02:28:18;102472.41;;;6.10;nan
66164;BME280;52962;51.088;3.096;2023-03-04T02:30:46;102476.03;;;6.12;nan
66164;BME280;52962;51.088;3.096;2023-03-04T02:33:16;102473.31;;;6.10;nan
66164;BME280;52962;51.088;3.096;2023-03-04T02:35:45;102469.78;;;6.10;nan
66164;BME280;52962;51.088;3.096;2023-03-04T02:38:14;102467.19;;;6.10;nan
66164;BME280;52962;51.088;3.096;2023-03-04T02:40:44;102464.56;;;6.10;nan
66164;BME280;52962;51.088;3.096;2023-03-04T02:43:13;102459.31;;;6.10;nan
66164;BME280;52962;51.088;3.096;2023-03-04T02:45:44;102454.81;;;6.07;nan
66164;BME280;52962;51.088;3.096;2023-03-04T02:48:15;102459.13;;;6.07;nan
66164;BME280;52962;51.088;3.096;2023-03-04T02:50:47;102454.81;;;6.07;nan
66164;BME280;52962;51.088;3.096;2023-03-04T02:53:17;102458.03;;;6.03;nan
66164;BME280;52962;51.088;3.096;2023-03-04T02:55:47;102460.75;;;6.05;nan
66164;BME280;52962;51.088;3.096;2023-03-04T02:58:18;102455.50;;;6.05;nan
66164;BME280;52962;51.088;3.096;2023-03-04T03:00:48;102460.75;;;6.05;nan
66164;BME280;52962;51.088;3.096;2023-03-04T03:03:16;102453.72;;;6.04;nan
66164;BME280;52962;51.088;3.096;2023-03-04T03:05:44;102457.13;;;6.03;nan
66164;BME280;52962;51.088;3.096;2023-03-04T03:08:13;102449.28;;;6.03;nan
66164;BME280;52962;51.088;3.096;2023-03-04T03:10:41;102450.88;;;6.01;nan
66164;BME280;52962;51.088;3.096;2023-03-04T03:13:10;102452.69;;;6.02;nan
66164;BME280;52962;51.088;3.096;2023-03-04T03:15:38;102457.94;;;6.02;nan
66164;BME280;52962;51.088;3.096;2023-03-04T03:18:10;102460.53;;;6.02;nan
66164;BME280;52962;51.088;3.096;2023-03-04T03:20:41;102456.94;;;6.00;nan
66164;BME280;52962;51.088;3.096;2023-03-04T03:23:09;102464.16;;;6.04;nan
66164;BME280;52962;51.088;3.096;2023-03-04T03:25:37;102465.06;;;6.04;nan
66164;BME280;52962;51.088;3.096;2023-03-04T03:28:05;102459.66;;;6.01;nan
66164;BME280;52962;51.088;3.096;2023-03-04T03:30:33;102460.53;;;6.02;nan
66164;BME280;52962;51.088;3.096;2023-03-04T03:33:04;102452.69;;;6.02;nan
66164;BME280;52962;51.088;3.096;2023-03-04T03:35:34;102453.50;;;6.01;nan
66164;BME280;52962;51.088;3.096;2023-03-04T03:38:02;102465.78;;;6.02;nan
66164;BME280;52962;51.088;3.096;2023-03-04T03:40:30;102453.50;;;6.01;nan
66164;BME280;52962;51.088;3.096;2023-03-04T03:42:58;102458.75;;;6.01;nan
66164;BME280;52962;51.088;3.096;2023-03-04T03:45:26;102451.69;;;6.00;nan
66164;BME280;52962;51.088;3.096;2023-03-04T03:47:55;102460.53;;;6.02;nan
66164;BME280;52962;51.088;3.096;2023-03-04T03:50:23;102453.50;;;6.01;nan
66164;BME280;52962;51.088;3.096;2023-03-04T03:52:52;102450.88;;;6.01;nan
66164;BME280;52962;51.088;3.096;2023-03-04T03:55:21;102451.78;;;6.01;nan
66164;BME280;52962;51.088;3.096;2023-03-04T03:57:49;102457.94;;;6.02;nan
66164;BME280;52962;51.088;3.096;2023-03-04T04:00:18;102456.94;;;6.00;nan
66164;BME280;52962;51.088;3.096;2023-03-04T04:02:46;102460.34;;;5.99;nan
66164;BME280;52962;51.088;3.096;2023-03-04T04:05:14;102458.75;;;6.01;nan
66164;BME280;52962;51.088;3.096;2023-03-04T04:07:42;102462.16;;;6.00;nan
66164;BME280;52962;51.088;3.096;2023-03-04T04:10:12;102464.78;;;6.00;nan
66164;BME280;52962;51.088;3.096;2023-03-04T04:12:40;102455.94;;;5.98;nan
66164;BME280;52962;51.088;3.096;2023-03-04T04:15:10;102454.31;;;6.00;nan
66164;BME280;52962;51.088;3.096;2023-03-04T04:17:38;102459.44;;;5.98;nan
66164;BME280;52962;51.088;3.096;2023-03-04T04:20:07;102456.94;;;6.00;nan
66164;BME280;52962;51.088;3.096;2023-03-04T04:22:35;102451.69;;;6.00;nan
66164;BME280;52962;51.088;3.096;2023-03-04T04:25:04;102450.88;;;6.01;nan
66164;BME280;52962;51.088;3.096;2023-03-04T04:27:36;102456.94;;;6.00;nan
66164;BME280;52962;51.088;3.096;2023-03-04T04:30:05;102454.31;;;6.00;nan
66164;BME280;52962;51.088;3.096;2023-03-04T04:32:33;102455.13;;;5.99;nan
66164;BME280;52962;51.088;3.096;2023-03-04T04:35:01;102458.75;;;6.01;nan
66164;BME280;52962;51.088;3.096;2023-03-04T04:37:30;102456.94;;;6.00;nan
66164;BME280;52962;51.088;3.096;2023-03-04T04:39:58;102459.44;;;5.98;nan
66164;BME280;52962;51.088;3.096;2023-03-04T04:42:26;102457.75;;;5.99;nan
66164;BME280;52962;51.088;3.096;2023-03-04T04:44:56;102467.38;;;6.00;nan
66164;BME280;52962;51.088;3.096;2023-03-04T04:47:24;102457.75;;;5.99;nan
66164;BME280;52962;51.088;3.096;2023-03-04T04:49:52;102459.34;;;5.97;nan
66164;BME280;52962;51.088;3.096;2023-03-04T04:52:20;102455.81;;;5.96;nan
66164;BME280;52962;51.088;3.096;2023-03-04T04:54:48;102463.78;;;5.98;nan
66164;BME280;52962;51.088;3.096;2023-03-04T04:57:16;102456.72;;;5.97;nan
66164;BME280;52962;51.088;3.096;2023-03-04T04:59:44;102457.75;;;5.99;nan
66164;BME280;52962;51.088;3.096;2023-03-04T05:02:14;102456.03;;;5.99;nan
66164;BME280;52962;51.088;3.096;2023-03-04T05:04:42;102457.84;;;6.00;nan
66164;BME280;52962;51.088;3.096;2023-03-04T05:07:10;102471.00;;;6.02;nan
66164;BME280;52962;51.088;3.096;2023-03-04T05:09:38;102463.97;;;6.01;nan
66164;BME280;52962;51.088;3.096;2023-03-04T05:12:06;102463.97;;;6.01;nan
66164;BME280;52962;51.088;3.096;2023-03-04T05:14:34;102462.16;;;6.00;nan
66164;BME280;52962;51.088;3.096;2023-03-04T05:17:03;102456.03;;;5.99;nan
66164;BME280;52962;51.088;3.096;2023-03-04T05:19:32;102451.50;;;5.97;nan
66164;BME280;52962;51.088;3.096;2023-03-04T05:22:00;102459.16;;;5.94;nan
66164;BME280;52962;51.088;3.096;2023-03-04T05:24:28;102463.66;;;5.96;nan
66164;BME280;52962;51.088;3.096;2023-03-04T05:26:56;102463.56;;;5.95;nan
66164;BME280;52962;51.088;3.096;2023-03-04T05:29:24;102466.09;;;5.93;nan
66164;BME280;52962;51.088;3.096;2023-03-04T05:31:53;102462.56;;;5.93;nan
66164;BME280;52962;51.088;3.096;2023-03-04T05:34:21;102464.06;;;5.89;nan
66164;BME280;52962;51.088;3.096;2023-03-04T05:36:50;102456.53;;;5.94;nan
66164;BME280;52962;51.088;3.096;2023-03-04T05:39:18;102461.75;;;5.94;nan
66164;BME280;52962;51.088;3.096;2023-03-04T05:41:46;102457.44;;;5.94;nan
66164;BME280;52962;51.088;3.096;2023-03-04T05:44:14;102467.09;;;5.95;nan
66164;BME280;52962;51.088;3.096;2023-03-04T05:46:43;102458.34;;;5.95;nan
66164;BME280;52962;51.088;3.096;2023-03-04T05:49:11;102463.56;;;5.95;nan
66164;BME280;52962;51.088;3.096;2023-03-04T05:51:39;102469.59;;;5.94;nan
66164;BME280;52962;51.088;3.096;2023-03-04T05:54:08;102466.19;;;5.95;nan
66164;BME280;52962;51.088;3.096;2023-03-04T05:56:36;102468.81;;;5.95;nan
66164;BME280;52962;51.088;3.096;2023-03-04T05:59:04;102477.44;;;5.94;nan
66164;BME280;52962;51.088;3.096;2023-03-04T06:01:32;102477.44;;;5.94;nan
66164;BME280;52962;51.088;3.096;2023-03-04T06:04:00;102475.66;;;5.93;nan
66164;BME280;52962;51.088;3.096;2023-03-04T06:06:28;102482.59;;;5.92;nan
66164;BME280;52962;51.088;3.096;2023-03-04T06:08:56;102472.69;;;5.88;nan
66164;BME280;52962;51.088;3.096;2023-03-04T06:11:26;102477.03;;;5.87;nan
66164;BME280;52962;51.088;3.096;2023-03-04T06:13:54;102479.53;;;5.86;nan
66164;BME280;52962;51.088;3.096;2023-03-04T06:16:22;102483.84;;;5.85;nan
66164;BME280;52962;51.088;3.096;2023-03-04T06:18:50;102475.00;;;5.83;nan
66164;BME280;52962;51.088;3.096;2023-03-04T06:21:18;102479.44;;;5.84;nan
66164;BME280;52962;51.088;3.096;2023-03-04T06:23:46;102478.44;;;5.82;nan
66164;BME280;52962;51.088;3.096;2023-03-04T06:26:15;102481.03;;;5.82;nan
66164;BME280;52962;51.088;3.096;2023-03-04T06:28:44;102481.03;;;5.82;nan
66164;BME280;52962;51.088;3.096;2023-03-04T06:31:13;102484.47;;;5.81;nan
66164;BME280;52962;51.088;3.096;2023-03-04T06:33:41;102483.66;;;5.82;nan
66164;BME280;52962;51.088;3.096;2023-03-04T06:36:09;102488.88;;;5.82;nan
66164;BME280;52962;51.088;3.096;2023-03-04T06:38:37;102487.97;;;5.82;nan
66164;BME280;52962;51.088;3.096;2023-03-04T06:41:06;102490.69;;;5.83;nan
66164;BME280;52962;51.088;3.096;2023-03-04T06:43:35;102492.50;;;5.84;nan
66164;BME280;52962;51.088;3.096;2023-03-04T06:46:05;102494.31;;;5.85;nan
66164;BME280;52962;51.088;3.096;2023-03-04T06:48:34;102509.00;;;5.83;nan
66164;BME280;52962;51.088;3.096;2023-03-04T06:51:06;102505.47;;;5.83;nan
66164;BME280;52962;51.088;3.096;2023-03-04T06:53:34;102507.09;;;5.81;nan
66164;BME280;52962;51.088;3.096;2023-03-04T06:56:03;102504.69;;;5.84;nan
66164;BME280;52962;51.088;3.096;2023-03-04T06:58:31;102506.47;;;5.85;nan
66164;BME280;52962;51.088;3.096;2023-03-04T07:01:10;102513.53;;;5.86;nan
66164;BME280;52962;51.088;3.096;2023-03-04T07:03:38;102516.25;;;5.87;nan
66164;BME280;52962;51.088;3.096;2023-03-04T07:06:08;102513.63;;;5.87;nan
66164;BME280;52962;51.088;3.096;2023-03-04T07:08:36;102525.91;;;5.88;nan
66164;BME280;52962;51.088;3.096;2023-03-04T07:11:04;102531.25;;;5.90;nan
66164;BME280;52962;51.088;3.096;2023-03-04T07:13:33;102533.88;;;5.90;nan
66164;BME280;52962;51.088;3.096;2023-03-04T07:16:04;102534.78;;;5.90;nan
66164;BME280;52962;51.088;3.096;2023-03-04T07:18:35;102537.50;;;5.92;nan
66164;BME280;52962;51.088;3.096;2023-03-04T07:21:03;102538.41;;;5.93;nan
66164;BME280;52962;51.088;3.096;2023-03-04T07:23:32;102547.34;;;5.96;nan
66164;BME280;52962;51.088;3.096;2023-03-04T07:26:00;102543.84;;;5.96;nan
66164;BME280;52962;51.088;3.096;2023-03-04T07:28:28;102557.00;;;5.97;nan
66164;BME280;52962;51.088;3.096;2023-03-04T07:30:56;102554.28;;;5.96;nan
66164;BME280;52962;51.088;3.096;2023-03-04T07:33:24;102555.31;;;5.98;nan
66164;BME280;52962;51.088;3.096;2023-03-04T07:35:59;102548.56;;;6.01;nan
66164;BME280;52962;51.088;3.096;2023-03-04T07:38:27;102552.09;;;6.02;nan
66164;BME280;52962;51.088;3.096;2023-03-04T07:40:55;102560.13;;;6.05;nan
66164;BME280;52962;51.088;3.096;2023-03-04T07:43:23;102559.53;;;6.09;nan
66164;BME280;52962;51.088;3.096;2023-03-04T07:45:51;102558.94;;;6.13;nan
66164;BME280;52962;51.088;3.096;2023-03-04T07:48:20;102556.63;;;6.17;nan
66164;BME280;52962;51.088;3.096;2023-03-04T07:50:49;102557.50;;;6.18;nan
66164;BME280;52962;51.088;3.096;2023-03-04T07:53:18;102564.56;;;6.19;nan
66164;BME280;52962;51.088;3.096;2023-03-04T07:55:46;102563.84;;;6.21;nan
66164;BME280;52962;51.088;3.096;2023-03-04T07:58:14;102565.47;;;6.19;nan
66164;BME280;52962;51.088;3.096;2023-03-04T08:00:45;102565.25;;;6.16;nan
66164;BME280;52962;51.088;3.096;2023-03-04T08:03:13;102566.16;;;6.17;nan
66164;BME280;52962;51.088;3.096;2023-03-04T08:05:41;102561.50;;;6.26;nan
66164;BME280;52962;51.088;3.096;2023-03-04T08:08:09;102568.13;;;6.34;nan
66164;BME280;52962;51.088;3.096;2023-03-04T08:10:39;102572.06;;;6.41;nan
66164;BME280;52962;51.088;3.096;2023-03-04T08:13:07;102562.47;;;6.54;nan
66164;BME280;52962;51.088;3.096;2023-03-04T08:15:39;102564.06;;;6.66;nan
66164;BME280;52962;51.088;3.096;2023-03-04T08:18:07;102565.69;;;6.64;nan
66164;BME280;52962;51.088;3.096;2023-03-04T08:20:35;102564.06;;;6.66;nan
66164;BME280;52962;51.088;3.096;2023-03-04T08:23:03;102563.25;;;6.67;nan
66164;BME280;52962;51.088;3.096;2023-03-04T08:25:31;102560.63;;;6.67;nan
66164;BME280;52962;51.088;3.096;2023-03-04T08:28:01;102566.97;;;6.70;nan
66164;BME280;52962;51.088;3.096;2023-03-04T08:30:29;102568.59;;;6.68;nan
66164;BME280;52962;51.088;3.096;2023-03-04T08:32:57;102572.72;;;6.65;nan
66164;BME280;52962;51.088;3.096;2023-03-04T08:35:26;102566.59;;;6.64;nan
66164;BME280;52962;51.088;3.096;2023-03-04T08:37:54;102580.59;;;6.65;nan
66164;BME280;52962;51.088;3.096;2023-03-04T08:40:22;102576.75;;;6.60;nan
66164;BME280;52962;51.088;3.096;2023-03-04T08:42:52;102576.66;;;6.58;nan
66164;BME280;52962;51.088;3.096;2023-03-04T08:45:21;102572.75;;;6.51;nan
66164;BME280;52962;51.088;3.096;2023-03-04T08:47:49;102577.59;;;6.45;nan
66164;BME280;52962;51.088;3.096;2023-03-04T08:50:18;102576.59;;;6.43;nan
66164;BME280;52962;51.088;3.096;2023-03-04T08:52:48;102578.41;;;6.44;nan
66164;BME280;52962;51.088;3.096;2023-03-04T08:55:16;102574.47;;;6.51;nan
66164;BME280;52962;51.088;3.096;2023-03-04T08:57:44;102569.53;;;6.55;nan
66164;BME280;52962;51.088;3.096;2023-03-04T09:00:13;102577.06;;;6.64;nan
66164;BME280;52962;51.088;3.096;2023-03-04T09:02:43;102572.94;;;6.68;nan
66164;BME280;52962;51.088;3.096;2023-03-04T09:05:11;102571.41;;;6.71;nan
66164;BME280;52962;51.088;3.096;2023-03-04T09:07:39;102568.38;;;6.78;nan
66164;BME280;52962;51.088;3.096;2023-03-04T09:10:08;102570.38;;;6.82;nan
66164;BME280;52962;51.088;3.096;2023-03-04T09:12:36;102567.13;;;6.86;nan
66164;BME280;52962;51.088;3.096;2023-03-04T09:15:06;102570.84;;;6.90;nan
66164;BME280;52962;51.088;3.096;2023-03-04T09:17:38;102574.47;;;6.92;nan
66164;BME280;52962;51.088;3.096;2023-03-04T09:20:11;102564.28;;;6.97;nan
66164;BME280;52962;51.088;3.096;2023-03-04T09:22:40;102566.19;;;6.99;nan
66164;BME280;52962;51.088;3.096;2023-03-04T09:25:12;102566.75;;;7.08;nan
66164;BME280;52962;51.088;3.096;2023-03-04T09:27:41;102568.03;;;7.15;nan
66164;BME280;52962;51.088;3.096;2023-03-04T09:30:10;102564.19;;;7.23;nan
66164;BME280;52962;51.088;3.096;2023-03-04T09:32:38;102569.22;;;7.35;nan
66164;BME280;52962;51.088;3.096;2023-03-04T09:35:08;102573.13;;;7.41;nan
66164;BME280;52962;51.088;3.096;2023-03-04T09:37:36;102573.66;;;7.36;nan
66164;BME280;52962;51.088;3.096;2023-03-04T09:40:10;102563.16;;;7.36;nan
66164;BME280;52962;51.088;3.096;2023-03-04T09:42:46;102565.97;;;7.39;nan
66164;BME280;52962;51.088;3.096;2023-03-04T09:45:17;102562.09;;;7.47;nan
66164;BME280;52962;51.088;3.096;2023-03-04T09:47:47;102569.53;;;7.54;nan
66164;BME280;52962;51.088;3.096;2023-03-04T09:50:19;102569.44;;;7.52;nan
66164;BME280;52962;51.088;3.096;2023-03-04T09:52:59;102563.56;;;7.57;nan
66164;BME280;52962;51.088;3.096;2023-03-04T09:55:34;102567.91;;;7.56;nan
66164;BME280;52962;51.088;3.096;2023-03-04T09:58:08;102568.72;;;7.70;nan
66164;BME280;52962;51.088;3.096;2023-03-04T10:00:41;102563.38;;;7.83;nan
66164;BME280;52962;51.088;3.096;2023-03-04T10:03:16;102562.66;;;7.85;nan
66164;BME280;52962;51.088;3.096;2023-03-04T10:05:53;102551.09;;;7.97;nan
66164;BME280;52962;51.088;3.096;2023-03-04T10:08:31;102553.97;;;8.01;nan
66164;BME280;52962;51.088;3.096;2023-03-04T10:11:03;102550.63;;;8.04;nan
66164;BME280;52962;51.088;3.096;2023-03-04T10:13:37;102542.00;;;8.21;nan
66164;BME280;52962;51.088;3.096;2023-03-04T10:16:10;102539.00;;;8.30;nan
66164;BME280;52962;51.088;3.096;2023-03-04T10:18:45;102539.13;;;8.47;nan
66164;BME280;52962;51.088;3.096;2023-03-04T10:21:21;102535.38;;;8.59;nan
66164;BME280;52962;51.088;3.096;2023-03-04T10:23:50;102539.22;;;8.65;nan
66164;BME280;52962;51.088;3.096;2023-03-04T10:26:21;102532.06;;;8.46;nan
66164;BME280;52962;51.088;3.096;2023-03-04T10:28:49;102540.84;;;8.32;nan
66164;BME280;52962;51.088;3.096;2023-03-04T10:31:20;102542.75;;;8.04;nan
66164;BME280;52962;51.088;3.096;2023-03-04T10:33:54;102549.09;;;7.93;nan
66164;BME280;52962;51.088;3.096;2023-03-04T10:36:35;102548.56;;;7.83;nan
66164;BME280;52962;51.088;3.096;2023-03-04T10:39:08;102552.00;;;7.82;nan
66164;BME280;52962;51.088;3.096;2023-03-04T10:41:41;102540.22;;;7.91;nan
66164;BME280;52962;51.088;3.096;2023-03-04T10:44:15;102540.81;;;8.16;nan
66164;BME280;52962;51.088;3.096;2023-03-04T10:46:46;102534.69;;;8.46;nan
66164;BME280;52962;51.088;3.096;2023-03-04T10:49:15;102538.34;;;8.65;nan
66164;BME280;52962;51.088;3.096;2023-03-04T10:51:46;102525.13;;;8.96;nan
66164;BME280;52962;51.088;3.096;2023-03-04T10:54:22;102519.47;;;9.21;nan
66164;BME280;52962;51.088;3.096;2023-03-04T10:57:01;102518.41;;;9.17;nan
66164;BME280;52962;51.088;3.096;2023-03-04T10:59:33;102529.75;;;9.00;nan
66164;BME280;52962;51.088;3.096;2023-03-04T11:02:14;102530.97;;;8.90;nan
66164;BME280;52962;51.088;3.096;2023-03-04T11:04:49;102527.03;;;8.82;nan
66164;BME280;52962;51.088;3.096;2023-03-04T11:07:22;102525.94;;;8.78;nan
66164;BME280;52962;51.088;3.096;2023-03-04T11:09:50;102520.44;;;8.74;nan
66164;BME280;52962;51.088;3.096;2023-03-04T11:12:20;102519.47;;;8.88;nan
66164;BME280;52962;51.088;3.096;2023-03-04T11:14:50;102518.66;;;9.05;nan
66164;BME280;52962;51.088;3.096;2023-03-04T11:17:22;102518.97;;;8.95;nan
66164;BME280;52962;51.088;3.096;2023-03-04T11:19:55;102512.25;;;8.84;nan
66164;BME280;52962;51.088;3.096;2023-03-04T11:22:27;102506.25;;;8.70;nan
66164;BME280;52962;51.088;3.096;2023-03-04T11:25:00;102506.50;;;8.75;nan
66164;BME280;52962;51.088;3.096;2023-03-04T11:27:41;102506.50;;;8.75;nan
66164;BME280;52962;51.088;3.096;2023-03-04T11:33:21;58706.69;;;-145.67;100.00
66164;BME280;52962;51.088;3.096;2023-03-04T11:35:57;58706.69;;;9.78;100.00
66164;BME280;52962;51.088;3.096;2023-03-04T11:38:32;102475.06;;;9.78;nan
66164;BME280;52962;51.088;3.096;2023-03-04T11:41:05;58706.69;;;-145.67;100.00
66164;BME280;52962;51.088;3.096;2023-03-04T11:43:38;58706.69;;;-145.67;100.00
66164;BME280;52962;51.088;3.096;2023-03-04T11:49:24;58706.69;;;-145.67;100.00
66164;BME280;52962;51.088;3.096;2023-03-04T11:52:01;58706.69;;;-145.67;100.00
66164;BME280;52962;51.088;3.096;2023-03-04T11:54:43;58706.69;;;-145.67;100.00
66164;BME280;52962;51.088;3.096;2023-03-04T11:57:27;58706.69;;;-145.67;100.00
66164;BME280;52962;51.088;3.096;2023-03-04T12:00:03;58706.69;;;-145.67;100.00
66164;BME280;52962;51.088;3.096;2023-03-04T12:02:44;102455.28;;;9.51;nan
66164;BME280;52962;51.088;3.096;2023-03-04T12:05:26;102473.88;;;9.38;nan
66164;BME280;52962;51.088;3.096;2023-03-04T12:11:02;102479.63;;;9.13;nan
66164;BME280;52962;51.088;3.096;2023-03-04T12:13:52;58706.69;;;9.12;100.00
66164;BME280;52962;51.088;3.096;2023-03-04T12:16:35;58706.69;;;-145.67;100.00
66164;BME280;52962;51.088;3.096;2023-03-04T12:19:21;58706.69;;;-145.67;100.00
66164;BME280;52962;51.088;3.096;2023-03-04T12:22:07;58706.69;;;-145.67;100.00
66164;BME280;52962;51.088;3.096;2023-03-04T12:24:48;58706.69;;;-145.67;100.00
66164;BME280;52962;51.088;3.096;2023-03-04T12:27:27;58706.69;;;-145.67;100.00
66164;BME280;52962;51.088;3.096;2023-03-04T12:30:03;58706.69;;;9.39;100.00
66164;BME280;52962;51.088;3.096;2023-03-04T12:32:39;102455.44;;;9.72;nan
66164;BME280;52962;51.088;3.096;2023-03-04T12:35:32;58706.69;;;-145.67;100.00
66164;BME280;52962;51.088;3.096;2023-03-04T12:38:41;58706.69;;;-145.67;100.00
66164;BME280;52962;51.088;3.096;2023-03-04T12:41:21;58706.69;;;-145.67;100.00
66164;BME280;52962;51.088;3.096;2023-03-04T12:44:00;58706.69;;;-145.67;100.00
66164;BME280;52962;51.088;3.096;2023-03-04T12:46:41;58706.69;;;-145.67;100.00
66164;BME280;52962;51.088;3.096;2023-03-04T12:52:10;58706.69;;;-145.67;100.00
66164;BME280;52962;51.088;3.096;2023-03-04T12:54:44;58706.69;;;-145.67;100.00
66164;BME280;52962;51.088;3.096;2023-03-04T12:57:15;58706.69;;;-145.67;100.00
66164;BME280;52962;51.088;3.096;2023-03-04T12:59:54;102435.91;;;8.65;nan
66164;BME280;52962;51.088;3.096;2023-03-04T13:02:38;58706.69;;;-145.67;100.00
66164;BME280;52962;51.088;3.096;2023-03-04T13:05:31;58706.69;;;-145.67;100.00
66164;BME280;52962;51.088;3.096;2023-03-04T13:08:11;58706.69;;;-145.67;100.00
66164;BME280;52962;51.088;3.096;2023-03-04T13:10:42;58706.69;;;-145.67;100.00
66164;BME280;52962;51.088;3.096;2023-03-04T13:13:38;58706.69;;;-145.67;100.00
66164;BME280;52962;51.088;3.096;2023-03-04T13:16:27;58706.69;;;-145.67;100.00
66164;BME280;52962;51.088;3.096;2023-03-04T13:18:57;58706.69;;;-145.67;100.00
66164;BME280;52962;51.088;3.096;2023-03-04T13:21:27;58706.69;;;-145.67;100.00
66164;BME280;52962;51.088;3.096;2023-03-04T13:23:55;58706.69;;;-145.67;100.00
66164;BME280;52962;51.088;3.096;2023-03-04T13:26:29;58706.69;;;-145.67;100.00
66164;BME280;52962;51.088;3.096;2023-03-04T13:31:57;58706.69;;;-145.67;100.00
66164;BME280;52962;51.088;3.096;2023-03-04T13:34:44;58706.69;;;-145.67;100.00
66164;BME280;52962;51.088;3.096;2023-03-04T13:37:29;58706.69;;;-145.67;100.00
66164;BME280;52962;51.088;3.096;2023-03-04T13:43:24;58706.69;;;-145.67;100.00
66164;BME280;52962;51.088;3.096;2023-03-04T13:45:53;58706.69;;;-145.67;100.00
66164;BME280;52962;51.088;3.096;2023-03-04T13:48:32;58706.69;;;-145.67;100.00
66164;BME280;52962;51.088;3.096;2023-03-04T13:51:03;58706.69;;;-145.67;100.00
66164;BME280;52962;51.088;3.096;2023-03-04T13:53:39;58706.69;;;-145.67;100.00